createdAt,value
2018-01-25T00:02:14.759Z,100794.59
2018-01-25T00:04:42.494Z,100786.29
2018-01-25T00:07:10.073Z,100787.11
2018-01-25T00:09:37.753Z,100787.69
2018-01-25T00:12:05.323Z,100781.05
2018-01-25T00:14:33.858Z,100784.81
2018-01-25T00:17:01.426Z,100784.70
2018-01-25T00:19:28.998Z,100790.54
2018-01-25T00:21:56.606Z,100781.55
2018-01-25T00:24:24.175Z,100774.14
2018-01-25T00:26:51.749Z,100786.01
2018-01-25T00:29:19.311Z,100782.28
2018-01-25T00:31:46.951Z,100781.86
2018-01-25T00:34:14.554Z,100794.19
2018-01-25T00:36:42.159Z,100783.97
2018-01-25T00:39:09.871Z,100788.92
2018-01-25T00:41:37.535Z,100797.22
2018-01-25T00:44:05.149Z,100792.66
2018-01-25T00:46:32.719Z,100781.55
2018-01-25T00:49:00.323Z,100781.44
2018-01-25T00:51:27.942Z,100791.16
2018-01-25T00:53:55.566Z,100783.48
2018-01-25T00:56:23.135Z,100789.27
2018-01-25T00:58:50.766Z,100793.19
2018-01-25T01:01:18.378Z,100796.14
2018-01-25T01:03:45.967Z,100790.84
2018-01-25T01:06:13.536Z,100787.31
2018-01-25T01:08:41.229Z,100788.23
2018-01-25T01:11:08.802Z,100783.97
2018-01-25T01:13:36.411Z,100792.19
2018-01-25T01:16:04.103Z,100794.11
2018-01-25T01:18:31.817Z,100801.13
2018-01-25T01:20:59.437Z,100804.05
2018-01-25T01:23:27.123Z,100791.84
2018-01-25T01:25:54.731Z,100790.03
2018-01-25T01:28:22.418Z,100793.61
2018-01-25T01:30:50.023Z,100781.94
2018-01-25T01:33:17.630Z,100800.13
2018-01-25T01:35:45.202Z,100801.67
2018-01-25T01:38:12.864Z,100796.45
2018-01-25T01:40:40.455Z,100795.78
2018-01-25T01:43:08.066Z,100795.14
2018-01-25T01:45:35.635Z,100793.70
2018-01-25T01:48:03.246Z,100804.55
2018-01-25T01:50:30.865Z,100795.64
2018-01-25T01:52:58.441Z,100805.39
2018-01-25T01:55:26.038Z,100798.86
2018-01-25T01:57:53.622Z,100801.88
2018-01-25T02:00:21.229Z,100806.20
2018-01-25T02:02:48.830Z,100808.52
2018-01-25T02:05:16.439Z,100807.60
2018-01-25T02:07:44.094Z,100810.70
2018-01-25T02:10:11.697Z,100808.21
2018-01-25T02:12:39.321Z,100812.80
2018-01-25T02:15:06.892Z,100808.66
2018-01-25T02:17:34.467Z,100811.74
2018-01-25T02:20:02.033Z,100808.09
2018-01-25T02:22:29.721Z,100808.29
2018-01-25T02:24:57.294Z,100811.14
2018-01-25T02:27:24.859Z,100802.05
2018-01-25T02:29:52.464Z,100804.93
2018-01-25T02:32:20.030Z,100796.34
2018-01-25T02:34:47.713Z,100805.98
2018-01-25T02:37:15.255Z,100802.70
2018-01-25T02:39:42.875Z,100788.63
2018-01-25T02:42:10.435Z,100793.66
2018-01-25T02:44:37.982Z,100791.94
2018-01-25T02:47:05.523Z,100789.17
2018-01-25T02:49:33.095Z,100783.80
2018-01-25T02:52:00.686Z,100784.58
2018-01-25T02:54:28.233Z,100784.69
2018-01-25T02:56:55.794Z,100779.11
2018-01-25T02:59:23.331Z,100775.13
2018-01-25T03:01:50.870Z,100789.04
2018-01-25T03:04:18.471Z,100794.20
2018-01-25T03:06:46.039Z,100794.74
2018-01-25T03:09:13.642Z,100792.11
2018-01-25T03:11:41.185Z,100800.00
2018-01-25T03:14:08.823Z,100798.47
2018-01-25T03:16:36.406Z,100795.12
2018-01-25T03:19:03.951Z,100791.86
2018-01-25T03:21:31.496Z,100794.31
2018-01-25T03:23:59.076Z,100791.68
2018-01-25T03:26:26.615Z,100788.23
2018-01-25T03:28:54.159Z,100794.38
2018-01-25T03:31:21.705Z,100783.76
2018-01-25T03:33:49.278Z,100790.17
2018-01-25T03:36:16.812Z,100785.78
2018-01-25T03:38:44.380Z,100783.58
2018-01-25T03:41:11.934Z,100785.06
2018-01-25T03:43:39.519Z,100776.77
2018-01-25T03:46:07.058Z,100778.22
2018-01-25T03:48:34.594Z,100789.20
2018-01-25T03:51:02.143Z,100789.47
2018-01-25T03:53:29.798Z,100792.89
2018-01-25T03:55:57.334Z,100792.86
2018-01-25T03:58:24.882Z,100783.39
2018-01-25T04:00:52.420Z,100793.84
2018-01-25T04:03:19.961Z,100768.68
2018-01-25T04:05:48.404Z,100769.41
2018-01-25T04:08:15.990Z,100777.19
2018-01-25T04:10:43.539Z,100778.19
2018-01-25T04:13:11.074Z,100781.69
2018-01-25T04:15:38.664Z,100786.91
2018-01-25T04:18:06.204Z,100790.14
2018-01-25T04:20:33.738Z,100783.00
2018-01-25T04:23:01.279Z,100772.37
2018-01-25T04:25:28.826Z,100774.37
2018-01-25T04:27:56.402Z,100771.09
2018-01-25T04:30:24.066Z,100769.68
2018-01-25T04:32:51.655Z,100765.91
2018-01-25T04:35:19.192Z,100774.44
2018-01-25T04:37:46.726Z,100777.04
2018-01-25T04:40:14.265Z,100776.55
2018-01-25T04:42:41.942Z,100781.48
2018-01-25T04:45:09.512Z,100792.66
2018-01-25T04:47:37.054Z,100788.25
2018-01-25T04:50:04.706Z,100798.23
2018-01-25T04:52:32.247Z,100790.13
2018-01-25T04:54:59.898Z,100790.60
2018-01-25T04:57:27.481Z,100784.39
2018-01-25T04:59:55.150Z,100786.05
2018-01-25T05:02:22.726Z,100790.07
2018-01-25T05:04:50.298Z,100787.00
2018-01-25T05:07:17.883Z,100792.32
2018-01-25T05:09:45.493Z,100790.27
2018-01-25T05:12:13.158Z,100792.77
2018-01-25T05:14:40.699Z,100794.88
2018-01-25T05:17:13.859Z,100801.97
2018-01-25T05:19:41.440Z,100802.61
2018-01-25T05:22:08.990Z,100806.11
2018-01-25T05:24:36.590Z,100801.35
2018-01-25T05:27:04.125Z,100809.57
2018-01-25T05:29:31.709Z,100811.39
2018-01-25T05:31:59.247Z,100817.77
2018-01-25T05:34:26.781Z,100813.91
2018-01-25T05:36:54.321Z,100822.90
2018-01-25T05:39:21.875Z,100818.23
2018-01-25T05:41:49.414Z,100821.17
2018-01-25T05:44:16.950Z,100816.83
2018-01-25T05:46:44.490Z,100819.80
2018-01-25T05:49:12.098Z,100825.35
2018-01-25T05:51:39.642Z,100821.94
2018-01-25T05:54:07.186Z,100826.82
2018-01-25T05:56:34.727Z,100830.86
2018-01-25T05:59:02.276Z,100822.30
2018-01-25T06:01:29.822Z,100825.53
2018-01-25T06:03:57.432Z,100827.39
2018-01-25T06:06:25.027Z,100831.66
2018-01-25T06:08:52.570Z,100827.23
2018-01-25T06:11:20.123Z,100836.05
2018-01-25T06:13:47.666Z,100835.03
2018-01-25T06:16:15.265Z,100843.52
2018-01-25T06:18:42.829Z,100841.23
2018-01-25T06:21:10.374Z,100845.80
2018-01-25T06:23:37.914Z,100845.55
2018-01-25T06:26:05.449Z,100842.97
2018-01-25T06:28:32.989Z,100839.42
2018-01-25T06:31:00.539Z,100845.95
2018-01-25T06:33:28.194Z,100839.61
2018-01-25T06:35:55.769Z,100838.94
2018-01-25T06:38:23.358Z,100845.66
2018-01-25T06:40:50.971Z,100846.22
2018-01-25T06:43:18.555Z,100845.98
2018-01-25T06:45:46.270Z,100849.23
2018-01-25T06:48:13.805Z,100849.45
2018-01-25T06:50:41.350Z,100852.33
2018-01-25T06:53:08.894Z,100848.66
2018-01-25T06:55:36.483Z,100858.88
2018-01-25T06:58:04.035Z,100854.60
2018-01-25T07:00:31.670Z,100865.88
2018-01-25T07:02:59.205Z,100853.76
2018-01-25T07:05:26.793Z,100855.06
2018-01-25T07:07:54.354Z,100853.53
2018-01-25T07:10:22.008Z,100857.72
2018-01-25T07:12:49.586Z,100863.77
2018-01-25T07:15:17.134Z,100868.50
2018-01-25T07:17:44.789Z,100867.01
2018-01-25T07:20:12.355Z,100867.45
2018-01-25T07:22:40.005Z,100880.04
2018-01-25T07:25:07.575Z,100869.58
2018-01-25T07:27:35.151Z,100873.11
2018-01-25T07:30:02.694Z,100877.66
2018-01-25T07:32:30.361Z,100881.95
2018-01-25T07:34:57.906Z,100887.47
2018-01-25T07:37:25.606Z,100897.91
2018-01-25T07:39:53.149Z,100896.39
2018-01-25T07:42:20.726Z,100894.33
2018-01-25T07:44:48.362Z,100882.75
2018-01-25T07:47:15.921Z,100898.00
2018-01-25T07:49:43.498Z,100897.41
2018-01-25T07:52:11.044Z,100905.44
2018-01-25T07:54:38.713Z,100908.90
2018-01-25T07:57:06.257Z,100918.31
2018-01-25T07:59:33.837Z,100912.88
2018-01-25T08:02:01.386Z,100917.22
2018-01-25T08:04:28.977Z,100914.61
2018-01-25T08:06:56.559Z,100916.67
2018-01-25T08:09:24.101Z,100922.67
2018-01-25T08:11:51.640Z,100919.08
2018-01-25T08:14:19.181Z,100916.80
2018-01-25T08:16:49.810Z,100918.20
2018-01-25T08:19:17.386Z,100916.62
2018-01-25T08:21:44.920Z,100915.08
2018-01-25T08:24:12.605Z,100912.02
2018-01-25T08:26:40.145Z,100913.08
2018-01-25T08:29:07.729Z,100916.67
2018-01-25T08:31:36.078Z,100923.43
2018-01-25T08:34:03.618Z,100926.42
2018-01-25T08:36:31.193Z,100928.84
2018-01-25T08:38:58.790Z,100933.95
2018-01-25T08:41:33.155Z,100934.25
2018-01-25T08:43:53.898Z,100940.29
2018-01-25T08:46:21.440Z,100944.22
2018-01-25T08:48:49.022Z,100949.08
2018-01-25T08:51:16.590Z,100938.94
2018-01-25T08:53:44.132Z,100937.88
2018-01-25T08:56:11.708Z,100951.58
2018-01-25T08:58:39.291Z,100949.24
2018-01-25T09:01:06.834Z,100956.17
2018-01-25T09:03:34.422Z,100959.56
2018-01-25T09:06:02.055Z,100958.66
2018-01-25T09:08:29.593Z,100963.44
2018-01-25T09:10:57.134Z,100964.66
2018-01-25T09:13:24.682Z,100979.33
2018-01-25T09:15:52.217Z,100977.97
2018-01-25T09:18:19.755Z,100985.80
2018-01-25T09:20:47.314Z,100985.46
2018-01-25T09:23:14.886Z,100985.25
2018-01-25T09:25:42.532Z,100978.31
2018-01-25T09:28:10.081Z,100981.27
2018-01-25T09:30:37.668Z,100991.50
2018-01-25T09:33:05.249Z,100995.94
2018-01-25T09:35:32.795Z,100998.19
2018-01-25T09:38:00.413Z,100999.32
2018-01-25T09:40:28.002Z,101004.69
2018-01-25T09:42:55.583Z,101009.67
2018-01-25T09:45:23.127Z,101009.52
2018-01-25T09:47:50.716Z,101013.93
2018-01-25T09:50:18.353Z,101018.80
2018-01-25T09:52:45.938Z,101021.77
2018-01-25T09:55:14.302Z,101021.58
2018-01-25T09:57:41.923Z,101019.42
2018-01-25T10:00:09.457Z,101022.62
2018-01-25T10:02:37.002Z,101016.77
2018-01-25T10:05:04.584Z,101017.03
2018-01-25T10:07:32.121Z,101023.67
2018-01-25T10:09:59.667Z,101021.47
2018-01-25T10:12:27.217Z,101023.59
2018-01-25T10:14:54.789Z,101031.28
2018-01-25T10:17:22.337Z,101039.61
2018-01-25T10:19:49.886Z,101035.98
2018-01-25T10:22:17.456Z,101040.20
2018-01-25T10:24:45.130Z,101039.25
2018-01-25T10:27:12.675Z,101038.59
2018-01-25T10:29:40.223Z,101036.13
2018-01-25T10:32:07.802Z,101037.09
2018-01-25T10:34:35.338Z,101037.93
2018-01-25T10:37:02.891Z,101046.00
2018-01-25T10:39:30.427Z,101040.41
2018-01-25T10:41:57.971Z,101039.47
2018-01-25T10:44:25.514Z,101037.76
2018-01-25T10:46:53.161Z,101036.80
2018-01-25T10:49:20.703Z,101032.19
2018-01-25T10:51:48.249Z,101038.34
2018-01-25T10:54:15.790Z,101040.73
2018-01-25T10:56:43.407Z,101039.52
2018-01-25T10:59:10.950Z,101033.13
2018-01-25T11:01:44.132Z,101028.43
2018-01-25T11:04:11.673Z,101038.11
2018-01-25T11:06:39.211Z,101034.61
2018-01-25T11:09:06.794Z,101037.95
2018-01-25T11:11:35.323Z,101034.59
2018-01-25T11:14:02.897Z,101039.38
2018-01-25T11:16:30.544Z,101026.92
2018-01-25T11:18:58.106Z,101023.03
2018-01-25T11:21:25.652Z,101024.77
2018-01-25T11:23:53.268Z,101018.75
2018-01-25T11:26:20.885Z,101025.65
2018-01-25T11:28:48.423Z,101025.08
2018-01-25T11:31:15.961Z,101031.58
2018-01-25T11:33:43.547Z,101026.97
2018-01-25T11:36:11.129Z,101022.36
2018-01-25T11:38:38.667Z,101024.05
2018-01-25T11:41:06.205Z,101008.72
2018-01-25T11:43:33.782Z,101016.41
2018-01-25T11:46:01.326Z,101010.35
2018-01-25T11:48:28.908Z,101014.89
2018-01-25T11:50:56.490Z,101011.50
2018-01-25T11:53:24.162Z,101006.73
2018-01-25T11:55:51.714Z,101005.82
2018-01-25T11:58:19.290Z,101005.63
2018-01-25T12:00:46.825Z,101003.83
2018-01-25T12:03:14.394Z,101006.24
2018-01-25T12:05:41.934Z,100998.94
2018-01-25T12:08:09.470Z,100997.97
2018-01-25T12:10:37.049Z,100985.51
2018-01-25T12:13:04.610Z,100987.84
2018-01-25T12:15:32.302Z,100993.80
2018-01-25T12:17:59.845Z,100988.29
2018-01-25T12:20:27.396Z,100987.72
2018-01-25T12:22:54.935Z,100986.56
2018-01-25T12:25:22.550Z,100989.41
2018-01-25T12:27:50.095Z,100990.82
2018-01-25T12:30:17.639Z,100999.02
2018-01-25T12:32:45.252Z,101001.91
2018-01-25T12:35:12.802Z,100995.84
2018-01-25T12:37:40.341Z,101002.27
2018-01-25T12:40:07.888Z,100995.11
2018-01-25T12:42:35.467Z,100999.58
2018-01-25T12:45:03.007Z,101000.73
2018-01-25T12:47:30.599Z,100996.95
2018-01-25T12:49:58.178Z,100996.37
2018-01-25T12:52:26.634Z,100984.69
2018-01-25T12:54:54.301Z,100989.51
2018-01-25T12:57:21.866Z,100995.86
2018-01-25T12:59:49.443Z,100980.32
2018-01-25T13:02:17.006Z,100996.14
2018-01-25T13:04:44.593Z,100989.39
2018-01-25T13:07:12.134Z,100994.95
2018-01-25T13:09:39.677Z,100987.38
2018-01-25T13:12:07.267Z,100980.52
2018-01-25T13:14:34.822Z,100985.02
2018-01-25T13:17:02.411Z,100983.07
2018-01-25T13:19:30.010Z,100981.95
2018-01-25T13:21:57.599Z,100979.74
2018-01-25T13:24:25.140Z,100973.51
2018-01-25T13:26:52.726Z,100982.67
2018-01-25T13:29:20.265Z,100973.36
2018-01-25T13:31:47.837Z,100977.28
2018-01-25T13:34:15.373Z,100978.95
2018-01-25T13:36:42.964Z,100978.18
2018-01-25T13:39:10.507Z,100971.20
2018-01-25T13:41:38.051Z,100977.13
2018-01-25T13:44:05.706Z,100979.91
2018-01-25T13:46:33.245Z,100970.23
2018-01-25T13:49:00.791Z,100967.47
2018-01-25T13:51:28.334Z,100962.63
2018-01-25T13:53:55.877Z,100963.73
2018-01-25T13:56:23.511Z,100960.31
2018-01-25T13:58:51.212Z,100965.73
2018-01-25T14:01:18.758Z,100962.86
2018-01-25T14:03:46.302Z,100964.97
2018-01-25T14:06:13.846Z,100962.93
2018-01-25T14:08:41.418Z,100955.20
2018-01-25T14:11:08.958Z,100960.42
2018-01-25T14:13:36.509Z,100958.70
2018-01-25T14:16:04.112Z,100957.68
2018-01-25T14:18:31.621Z,100961.56
2018-01-25T14:20:59.156Z,100965.31
2018-01-25T14:23:26.734Z,100971.55
2018-01-25T14:25:54.266Z,100979.42
2018-01-25T14:28:21.846Z,100984.58
2018-01-25T14:30:49.382Z,100992.45
2018-01-25T14:33:16.971Z,100992.25
2018-01-25T14:35:44.578Z,100991.73
2018-01-25T14:38:12.118Z,100994.30
2018-01-25T14:40:39.674Z,100995.38
2018-01-25T14:43:07.257Z,100990.75
2018-01-25T14:45:34.802Z,100993.23
2018-01-25T14:48:02.339Z,100993.10
2018-01-25T14:50:29.914Z,100990.67
2018-01-25T14:52:57.444Z,100985.78
2018-01-25T14:55:24.985Z,100993.72
2018-01-25T14:57:52.525Z,100983.41
2018-01-25T15:00:20.062Z,100991.09
2018-01-25T15:02:47.741Z,100986.16
2018-01-25T15:05:15.282Z,100987.39
2018-01-25T15:07:42.857Z,100990.08
2018-01-25T15:10:10.402Z,100987.92
2018-01-25T15:12:37.995Z,100987.64
2018-01-25T15:15:05.549Z,100983.27
2018-01-25T15:17:33.106Z,100992.91
2018-01-25T15:20:00.642Z,100987.92
2018-01-25T15:22:28.178Z,100995.21
2018-01-25T15:25:01.458Z,100990.09
2018-01-25T15:27:33.859Z,100987.92
2018-01-25T15:30:01.611Z,100993.28
2018-01-25T15:32:29.145Z,100987.80
2018-01-25T15:34:56.685Z,100990.69
2018-01-25T15:37:24.222Z,100979.84
2018-01-25T15:39:51.771Z,100978.92
2018-01-25T15:42:19.311Z,100973.28
2018-01-25T15:44:46.892Z,100968.87
2018-01-25T15:47:14.452Z,100964.41
2018-01-25T15:49:42.031Z,100959.75
2018-01-25T15:52:09.602Z,100957.78
2018-01-25T15:54:37.194Z,100961.58
2018-01-25T15:57:04.741Z,100967.52
2018-01-25T15:59:32.282Z,100964.44
2018-01-25T16:01:59.823Z,100966.00
2018-01-25T16:04:27.395Z,100972.07
2018-01-25T16:06:54.989Z,100972.29
2018-01-25T16:09:22.575Z,100971.41
2018-01-25T16:11:50.185Z,100966.13
2018-01-25T16:14:18.122Z,100965.00
2018-01-25T16:16:45.663Z,100968.09
2018-01-25T16:19:13.277Z,100965.84
2018-01-25T16:21:40.818Z,100961.72
2018-01-25T16:24:08.373Z,100967.43
2018-01-25T16:26:35.954Z,100972.72
2018-01-25T16:29:03.487Z,100972.16
2018-01-25T16:31:31.062Z,100970.11
2018-01-25T16:33:58.752Z,100966.73
2018-01-25T16:36:26.286Z,100960.25
2018-01-25T16:38:53.822Z,100962.67
2018-01-25T16:41:21.365Z,100959.23
2018-01-25T16:43:48.946Z,100958.45
2018-01-25T16:46:16.510Z,100966.73
2018-01-25T16:48:44.096Z,100958.59
2018-01-25T16:51:11.671Z,100963.39
2018-01-25T16:53:39.229Z,100954.44
2018-01-25T16:56:06.868Z,100962.27
2018-01-25T16:58:34.453Z,100961.41
2018-01-25T17:01:02.113Z,100957.19
2018-01-25T17:03:29.665Z,100958.11
2018-01-25T17:05:57.206Z,100959.80
2018-01-25T17:08:24.845Z,100952.53
2018-01-25T17:10:52.396Z,100955.70
2018-01-25T17:13:19.993Z,100949.55
2018-01-25T17:15:47.548Z,100954.72
2018-01-25T17:18:15.134Z,100955.89
2018-01-25T17:20:42.717Z,100951.20
2018-01-25T17:23:10.266Z,100960.26
2018-01-25T17:25:37.811Z,100963.89
2018-01-25T17:28:05.385Z,100964.88
2018-01-25T17:30:32.934Z,100951.27
2018-01-25T17:33:00.483Z,100957.58
2018-01-25T17:35:28.082Z,100945.87
2018-01-25T17:37:55.733Z,100949.47
2018-01-25T17:40:23.282Z,100945.14
2018-01-25T17:42:50.827Z,100950.25
2018-01-25T17:45:18.410Z,100954.38
2018-01-25T17:47:46.862Z,100954.02
2018-01-25T17:50:14.402Z,100963.42
2018-01-25T17:52:41.958Z,100962.69
2018-01-25T17:55:09.570Z,100963.11
2018-01-25T17:57:37.155Z,100953.98
2018-01-25T18:00:04.702Z,100957.89
2018-01-25T18:02:32.371Z,100963.56
2018-01-25T18:05:00.031Z,100955.28
2018-01-25T18:07:27.571Z,100963.53
2018-01-25T18:09:55.148Z,100964.17
2018-01-25T18:12:22.711Z,100965.82
2018-01-25T18:14:50.246Z,100970.79
2018-01-25T18:17:17.794Z,100967.94
2018-01-25T18:19:45.334Z,100979.20
2018-01-25T18:22:12.874Z,100978.47
2018-01-25T18:24:40.482Z,100990.95
2018-01-25T18:27:08.990Z,100994.47
2018-01-25T18:29:36.550Z,100990.98
2018-01-25T18:32:04.109Z,100990.03
2018-01-25T18:34:31.693Z,100995.92
2018-01-25T18:36:59.233Z,100995.67
2018-01-25T18:39:26.786Z,101000.89
2018-01-25T18:41:54.472Z,100991.48
2018-01-25T18:44:22.122Z,100995.31
2018-01-25T18:46:49.725Z,100995.70
2018-01-25T18:49:17.310Z,101003.88
2018-01-25T18:51:44.886Z,101001.62
2018-01-25T18:54:12.476Z,101007.41
2018-01-25T18:56:41.979Z,101005.86
2018-01-25T18:59:09.522Z,101003.67
2018-01-25T19:01:37.063Z,101011.92
2018-01-25T19:04:04.654Z,101012.98
2018-01-25T19:06:32.242Z,101016.43
2018-01-25T19:09:00.043Z,101013.75
2018-01-25T19:11:27.607Z,101021.55
2018-01-25T19:13:55.153Z,101022.24
2018-01-25T19:16:22.728Z,101016.61
2018-01-25T19:18:50.426Z,101016.04
2018-01-25T19:21:18.302Z,101025.13
2018-01-25T19:23:45.979Z,101027.14
2018-01-25T19:26:13.529Z,101020.06
2018-01-25T19:28:41.078Z,101024.71
2018-01-25T19:31:08.624Z,101021.58
2018-01-25T19:33:36.228Z,101017.73
2018-01-25T19:36:03.795Z,101014.73
2018-01-25T19:38:31.426Z,101020.94
2018-01-25T19:40:59.161Z,101020.48
2018-01-25T19:43:26.718Z,101013.18
2018-01-25T19:45:54.382Z,101014.69
2018-01-25T19:48:21.946Z,101007.64
2018-01-25T19:50:49.530Z,101006.52
2018-01-25T19:53:17.173Z,101007.81
2018-01-25T19:55:44.698Z,101009.92
2018-01-25T19:58:12.288Z,101009.22
2018-01-25T20:00:39.879Z,101013.45
2018-01-25T20:03:07.462Z,101013.05
2018-01-25T20:05:35.016Z,101015.41
2018-01-25T20:08:02.602Z,101014.43
2018-01-25T20:10:30.153Z,101016.06
2018-01-25T20:12:57.750Z,101020.13
2018-01-25T20:15:25.298Z,101015.45
2018-01-25T20:17:52.846Z,101015.44
2018-01-25T20:20:20.394Z,101009.66
2018-01-25T20:22:47.943Z,101004.39
2018-01-25T20:25:15.556Z,101006.45
2018-01-25T20:27:43.168Z,101009.13
2018-01-25T20:30:10.822Z,101008.75
2018-01-25T20:32:38.372Z,101008.95
2018-01-25T20:35:05.927Z,101017.78
2018-01-25T20:37:33.477Z,101002.87
2018-01-25T20:40:01.046Z,101004.92
2018-01-25T20:42:28.630Z,101000.41
2018-01-25T20:44:56.279Z,101008.66
2018-01-25T20:47:23.940Z,101015.56
2018-01-25T20:49:51.599Z,101019.23
2018-01-25T20:52:19.263Z,101022.33
2018-01-25T20:54:46.922Z,101018.41
2018-01-25T20:57:14.485Z,101018.80
2018-01-25T20:59:42.026Z,101016.63
2018-01-25T21:02:09.574Z,101021.70
2018-01-25T21:04:37.132Z,101009.26
2018-01-25T21:07:04.676Z,101011.94
2018-01-25T21:09:32.223Z,101014.20
2018-01-25T21:11:59.766Z,101010.64
2018-01-25T21:14:27.309Z,101012.69
2018-01-25T21:16:54.857Z,101016.56
2018-01-25T21:19:22.455Z,101012.38
2018-01-25T21:21:50.005Z,101007.38
2018-01-25T21:24:17.621Z,101015.91
2018-01-25T21:26:45.170Z,101016.33
2018-01-25T21:29:12.722Z,101011.67
2018-01-25T21:31:40.314Z,101023.23
2018-01-25T21:34:08.817Z,101019.36
2018-01-25T21:36:36.365Z,101012.23
2018-01-25T21:39:03.915Z,101014.66
2018-01-25T21:41:31.504Z,101021.93
2018-01-25T21:43:59.054Z,101024.72
2018-01-25T21:46:26.606Z,101022.77
2018-01-25T21:48:54.251Z,101020.41
2018-01-25T21:51:21.809Z,101018.47
2018-01-25T21:53:49.407Z,101014.28
2018-01-25T21:56:17.062Z,101011.39
2018-01-25T21:58:44.625Z,101011.64
2018-01-25T22:01:12.190Z,101012.09
2018-01-25T22:03:39.782Z,101010.97
2018-01-25T22:06:07.410Z,101012.80
2018-01-25T22:08:34.958Z,101019.04
2018-01-25T22:11:02.534Z,101024.67
2018-01-25T22:13:30.090Z,101028.20
2018-01-25T22:15:57.642Z,101031.13
2018-01-25T22:18:25.209Z,101022.63
2018-01-25T22:20:52.758Z,101017.88
2018-01-25T22:23:20.309Z,101021.19
2018-01-25T22:25:47.895Z,101012.02
2018-01-25T22:28:15.443Z,101013.25
2018-01-25T22:30:43.034Z,101016.61
2018-01-25T22:33:10.582Z,101017.75
2018-01-25T22:35:38.165Z,101024.75
2018-01-25T22:38:05.809Z,101021.89
2018-01-25T22:40:33.385Z,101014.70
2018-01-25T22:43:01.024Z,101011.84
2018-01-25T22:45:28.614Z,101011.25
2018-01-25T22:47:56.161Z,101011.42
2018-01-25T22:50:23.750Z,101010.94
2018-01-25T22:52:51.293Z,101011.49
2018-01-25T22:55:18.893Z,101024.31
2018-01-25T22:57:46.488Z,101026.32
2018-01-25T23:00:25.937Z,101027.46
2018-01-25T23:02:53.530Z,101028.77
2018-01-25T23:05:21.132Z,101039.09
2018-01-25T23:07:48.703Z,101035.81
2018-01-25T23:10:16.250Z,101033.84
2018-01-25T23:12:43.858Z,101032.67
2018-01-25T23:15:11.491Z,101035.32
2018-01-25T23:17:39.073Z,101047.62
2018-01-25T23:20:06.667Z,101033.14
2018-01-25T23:22:34.218Z,101037.19
2018-01-25T23:25:01.753Z,101031.69
2018-01-25T23:27:29.298Z,101030.50
2018-01-25T23:29:56.832Z,101032.08
2018-01-25T23:32:24.364Z,101027.14
2018-01-25T23:34:51.894Z,101026.80
2018-01-25T23:37:20.080Z,101024.85
2018-01-25T23:39:47.701Z,101026.39
2018-01-25T23:42:15.277Z,101016.56
2018-01-25T23:44:42.864Z,101017.23
2018-01-25T23:47:10.402Z,101013.14
2018-01-25T23:49:37.954Z,101005.25
2018-01-25T23:52:05.498Z,101006.66
2018-01-25T23:54:33.044Z,101002.59
2018-01-25T23:57:00.590Z,101001.61
2018-01-25T23:59:28.138Z,100998.55
